sensor_id;sensor_type;location;lat;lon;timestamp;pressure;altitude;pressure_sealevel;temperature;humidity
16451;BME280;12243;42.708;23.310;2023-12-20T00:01:07;95399.50;;;1.15;100.00
16451;BME280;12243;42.708;23.310;2023-12-20T00:03:34;95401.31;;;1.13;100.00
16451;BME280;12243;42.708;23.310;2023-12-20T00:06:01;95402.16;;;1.13;100.00
16451;BME280;12243;42.708;23.310;2023-12-20T00:08:28;95396.34;;;1.30;100.00
16451;BME280;12243;42.708;23.310;2023-12-20T00:10:55;95393.66;;;1.33;100.00
16451;BME280;12243;42.708;23.310;2023-12-20T00:13:21;95393.31;;;1.21;100.00
16451;BME280;12243;42.708;23.310;2023-12-20T00:15:50;95388.53;;;1.11;100.00
16451;BME280;12243;42.708;23.310;2023-12-20T00:18:16;95390.94;;;1.16;100.00
16451;BME280;12243;42.708;23.310;2023-12-20T00:20:44;95387.47;;;1.17;100.00
16451;BME280;12243;42.708;23.310;2023-12-20T00:23:11;95379.13;;;1.12;100.00
16451;BME280;12243;42.708;23.310;2023-12-20T00:25:37;95366.44;;;1.09;100.00
16451;BME280;12243;42.708;23.310;2023-12-20T00:28:04;95369.94;;;1.06;100.00
16451;BME280;12243;42.708;23.310;2023-12-20T00:30:31;95370.66;;;1.10;100.00
16451;BME280;12243;42.708;23.310;2023-12-20T00:32:59;95367.06;;;1.14;100.00
16451;BME280;12243;42.708;23.310;2023-12-20T00:35:26;95354.44;;;1.09;100.00
16451;BME280;12243;42.708;23.310;2023-12-20T00:37:53;95373.34;;;1.07;100.00
16451;BME280;12243;42.708;23.310;2023-12-20T00:40:20;95363.28;;;1.02;100.00
16451;BME280;12243;42.708;23.310;2023-12-20T00:42:47;95358.88;;;1.06;100.00
16451;BME280;12243;42.708;23.310;2023-12-20T00:45:15;95361.34;;;1.07;100.00
16451;BME280;12243;42.708;23.310;2023-12-20T00:47:40;95361.34;;;1.07;100.00
16451;BME280;12243;42.708;23.310;2023-12-20T00:50:09;95350.22;;;1.08;100.00
16451;BME280;12243;42.708;23.310;2023-12-20T00:52:36;95346.94;;;1.05;100.00
16451;BME280;12243;42.708;23.310;2023-12-20T00:55:04;95347.19;;;0.99;100.00
16451;BME280;12243;42.708;23.310;2023-12-20T00:57:30;95348.84;;;1.00;100.00
16451;BME280;12243;42.708;23.310;2023-12-20T00:59:57;95349.22;;;0.90;100.00
16451;BME280;12243;42.708;23.310;2023-12-20T01:02:24;95341.13;;;0.79;100.00
16451;BME280;12243;42.708;23.310;2023-12-20T01:04:51;95337.66;;;0.80;100.00
16451;BME280;12243;42.708;23.310;2023-12-20T01:07:19;95332.78;;;0.74;100.00
16451;BME280;12243;42.708;23.310;2023-12-20T01:09:46;95333.94;;;0.67;100.00
16451;BME280;12243;42.708;23.310;2023-12-20T01:12:13;95325.97;;;0.73;100.00
16451;BME280;12243;42.708;23.310;2023-12-20T01:14:40;95328.19;;;0.82;100.00
16451;BME280;12243;42.708;23.310;2023-12-20T01:17:07;95324.28;;;0.74;100.00
16451;BME280;12243;42.708;23.310;2023-12-20T01:19:35;95320.69;;;0.56;100.00
16451;BME280;12243;42.708;23.310;2023-12-20T01:22:01;95318.41;;;0.50;100.00
16451;BME280;12243;42.708;23.310;2023-12-20T01:24:30;95319.81;;;0.57;100.00
16451;BME280;12243;42.708;23.310;2023-12-20T01:26:57;95313.00;;;0.56;100.00
16451;BME280;12243;42.708;23.310;2023-12-20T01:29:24;95305.47;;;0.53;100.00
16451;BME280;12243;42.708;23.310;2023-12-20T01:31:51;95297.06;;;0.49;100.00
16451;BME280;12243;42.708;23.310;2023-12-20T01:34:18;95295.84;;;0.58;100.00
16451;BME280;12243;42.708;23.310;2023-12-20T01:36:44;95297.91;;;0.50;100.00
16451;BME280;12243;42.708;23.310;2023-12-20T01:39:11;95288.66;;;0.45;100.00
16451;BME280;12243;42.708;23.310;2023-12-20T01:41:40;95289.53;;;0.44;100.00
16451;BME280;12243;42.708;23.310;2023-12-20T01:44:07;95283.13;;;0.56;100.00
16451;BME280;12243;42.708;23.310;2023-12-20T01:46:34;95285.00;;;0.51;100.00
16451;BME280;12243;42.708;23.310;2023-12-20T01:49:01;95274.28;;;0.41;100.00
16451;BME280;12243;42.708;23.310;2023-12-20T01:51:28;95279.41;;;0.41;100.00
16451;BME280;12243;42.708;23.310;2023-12-20T01:53:57;95269.28;;;0.38;100.00
16451;BME280;12243;42.708;23.310;2023-12-20T01:56:24;95268.56;;;0.35;100.00
16451;BME280;12243;42.708;23.310;2023-12-20T01:58:53;95276.41;;;0.32;100.00
16451;BME280;12243;42.708;23.310;2023-12-20T02:01:20;95267.16;;;0.28;100.00
16451;BME280;12243;42.708;23.310;2023-12-20T02:03:47;95266.44;;;0.24;100.00
16451;BME280;12243;42.708;23.310;2023-12-20T02:06:14;95261.19;;;0.27;100.00
16451;BME280;12243;42.708;23.310;2023-12-20T02:08:41;95261.47;;;0.21;100.00
16451;BME280;12243;42.708;23.310;2023-12-20T02:11:08;95254.75;;;0.17;100.00
16451;BME280;12243;42.708;23.310;2023-12-20T02:13:36;95256.44;;;0.18;100.00
16451;BME280;12243;42.708;23.310;2023-12-20T02:16:05;95249.75;;;0.14;100.00
16451;BME280;12243;42.708;23.310;2023-12-20T02:18:33;95251.78;;;0.06;100.00
16451;BME280;12243;42.708;23.310;2023-12-20T02:20:59;95248.66;;;0.21;100.00
16451;BME280;12243;42.708;23.310;2023-12-20T02:23:28;95243.28;;;0.05;100.00
16451;BME280;12243;42.708;23.310;2023-12-20T02:25:55;95246.16;;;-0.03;100.00
16451;BME280;12243;42.708;23.310;2023-12-20T02:28:22;95241.25;;;-0.09;100.00
16451;BME280;12243;42.708;23.310;2023-12-20T02:30:49;95237.25;;;-0.16;100.00
16451;BME280;12243;42.708;23.310;2023-12-20T02:33:16;95230.59;;;-0.20;100.00
16451;BME280;12243;42.708;23.310;2023-12-20T02:35:43;95231.31;;;-0.16;100.00
16451;BME280;12243;42.708;23.310;2023-12-20T02:38:10;95227.75;;;-0.12;100.00
16451;BME280;12243;42.708;23.310;2023-12-20T02:40:38;95226.69;;;-0.07;100.00
16451;BME280;12243;42.708;23.310;2023-12-20T02:43:05;95222.88;;;0.04;100.00
16451;BME280;12243;42.708;23.310;2023-12-20T02:45:32;95211.91;;;0.00;100.00
16451;BME280;12243;42.708;23.310;2023-12-20T02:47:58;95213.63;;;-0.01;100.00
16451;BME280;12243;42.708;23.310;2023-12-20T02:50:25;95222.09;;;0.02;100.00
16451;BME280;12243;42.708;23.310;2023-12-20T02:52:52;95225.28;;;0.07;100.00
16451;BME280;12243;42.708;23.310;2023-12-20T02:55:19;95214.59;;;-0.03;100.00
16451;BME280;12243;42.708;23.310;2023-12-20T02:57:47;95223.09;;;-0.03;100.00
16451;BME280;12243;42.708;23.310;2023-12-20T03:00:14;95217.03;;;0.00;100.00
16451;BME280;12243;42.708;23.310;2023-12-20T03:02:41;95219.75;;;-0.05;100.00
16451;BME280;12243;42.708;23.310;2023-12-20T03:05:08;95222.63;;;-0.12;100.00
16451;BME280;12243;42.708;23.310;2023-12-20T03:07:36;95223.44;;;-0.12;100.00
16451;BME280;12243;42.708;23.310;2023-12-20T03:10:04;95213.22;;;-0.12;100.00
16451;BME280;12243;42.708;23.310;2023-12-20T03:12:33;95211.31;;;-0.07;100.00
16451;BME280;12243;42.708;23.310;2023-12-20T03:15:01;95213.31;;;-0.15;100.00
16451;BME280;12243;42.708;23.310;2023-12-20T03:17:28;95213.09;;;-0.09;100.00
16451;BME280;12243;42.708;23.310;2023-12-20T03:19:55;95204.19;;;-0.20;100.00
16451;BME280;12243;42.708;23.310;2023-12-20T03:22:22;95205.00;;;-0.20;100.00
16451;BME280;12243;42.708;23.310;2023-12-20T03:24:49;95211.78;;;-0.19;100.00
16451;BME280;12243;42.708;23.310;2023-12-20T03:27:15;95199.94;;;-0.21;100.00
16451;BME280;12243;42.708;23.310;2023-12-20T03:29:42;95201.78;;;-0.25;100.00
16451;BME280;12243;42.708;23.310;2023-12-20T03:32:10;95204.50;;;-0.08;100.00
16451;BME280;12243;42.708;23.310;2023-12-20T03:34:37;95198.09;;;-0.18;100.00
16451;BME280;12243;42.708;23.310;2023-12-20T03:37:04;95200.94;;;-0.04;100.00
16451;BME280;12243;42.708;23.310;2023-12-20T03:39:31;95202.97;;;-0.12;100.00
16451;BME280;12243;42.708;23.310;2023-12-20T03:41:58;95198.03;;;-0.16;100.00
16451;BME280;12243;42.708;23.310;2023-12-20T03:44:24;95195.28;;;-0.12;100.00
16451;BME280;12243;42.708;23.310;2023-12-20T03:46:51;95194.28;;;-0.08;100.00
16451;BME280;12243;42.708;23.310;2023-12-20T03:49:19;95196.09;;;-0.10;100.00
16451;BME280;12243;42.708;23.310;2023-12-20T03:51:46;95195.28;;;-0.12;100.00
16451;BME280;12243;42.708;23.310;2023-12-20T03:54:13;95187.63;;;-0.12;100.00
16451;BME280;12243;42.708;23.310;2023-12-20T03:56:40;95193.56;;;-0.11;100.00
16451;BME280;12243;42.708;23.310;2023-12-20T03:59:07;95190.19;;;-0.12;100.00
16451;BME280;12243;42.708;23.310;2023-12-20T04:01:34;95193.63;;;-0.13;100.00
16451;BME280;12243;42.708;23.310;2023-12-20T04:04:01;95190.13;;;-0.10;100.00
16451;BME280;12243;42.708;23.310;2023-12-20T04:06:29;95176.44;;;-0.09;100.00
16451;BME280;12243;42.708;23.310;2023-12-20T04:08:56;95181.44;;;-0.06;100.00
16451;BME280;12243;42.708;23.310;2023-12-20T04:11:23;95177.19;;;-0.07;100.00
16451;BME280;12243;42.708;23.310;2023-12-20T04:13:50;95171.00;;;-0.02;100.00
16451;BME280;12243;42.708;23.310;2023-12-20T04:16:17;95176.66;;;-0.15;100.00
16451;BME280;12243;42.708;23.310;2023-12-20T04:18:46;95167.03;;;-0.09;100.00
16451;BME280;12243;42.708;23.310;2023-12-20T04:21:13;95160.78;;;-0.23;100.00
16451;BME280;12243;42.708;23.310;2023-12-20T04:23:41;95151.75;;;-0.10;100.00
16451;BME280;12243;42.708;23.310;2023-12-20T04:26:08;95161.53;;;-0.21;100.00
16451;BME280;12243;42.708;23.310;2023-12-20T04:28:35;95150.25;;;-0.16;100.00
16451;BME280;12243;42.708;23.310;2023-12-20T04:31:02;95157.31;;;-0.22;100.00
16451;BME280;12243;42.708;23.310;2023-12-20T04:33:29;95154.66;;;-0.19;100.00
16451;BME280;12243;42.708;23.310;2023-12-20T04:35:56;95158.03;;;-0.19;100.00
16451;BME280;12243;42.708;23.310;2023-12-20T04:38:23;95152.31;;;-0.26;100.00
16451;BME280;12243;42.708;23.310;2023-12-20T04:40:51;95154.16;;;-0.29;100.00
16451;BME280;12243;42.708;23.310;2023-12-20T04:43:18;95154.41;;;-0.35;100.00
16451;BME280;12243;42.708;23.310;2023-12-20T04:45:45;95148.47;;;-0.36;100.00
16451;BME280;12243;42.708;23.310;2023-12-20T04:48:12;95147.41;;;-0.30;100.00
16451;BME280;12243;42.708;23.310;2023-12-20T04:50:39;95148.03;;;-0.25;100.00
16451;BME280;12243;42.708;23.310;2023-12-20T04:53:06;95149.16;;;-0.32;100.00
16451;BME280;12243;42.708;23.310;2023-12-20T04:55:32;95143.34;;;-0.36;100.00
16451;BME280;12243;42.708;23.310;2023-12-20T04:58:01;95141.69;;;-0.37;100.00
16451;BME280;12243;42.708;23.310;2023-12-20T05:00:28;95145.41;;;-0.45;100.00
16451;BME280;12243;42.708;23.310;2023-12-20T05:02:55;95142.75;;;-0.42;100.00
16451;BME280;12243;42.708;23.310;2023-12-20T05:05:22;95139.16;;;-0.60;100.00
16451;BME280;12243;42.708;23.310;2023-12-20T05:07:49;95133.94;;;-0.57;100.00
16451;BME280;12243;42.708;23.310;2023-12-20T05:10:16;95132.81;;;-0.72;100.00
16451;BME280;12243;42.708;23.310;2023-12-20T05:12:43;95128.22;;;-0.64;100.00
16451;BME280;12243;42.708;23.310;2023-12-20T05:15:11;95132.63;;;-0.67;100.00
16451;BME280;12243;42.708;23.310;2023-12-20T05:17:38;95134.53;;;-0.73;100.00
16451;BME280;12243;42.708;23.310;2023-12-20T05:20:06;95131.91;;;-0.71;100.00
16451;BME280;12243;42.708;23.310;2023-12-20T05:22:33;95132.81;;;-0.72;100.00
16451;BME280;12243;42.708;23.310;2023-12-20T05:25:00;95131.91;;;-0.71;100.00
16451;BME280;12243;42.708;23.310;2023-12-20T05:27:27;95127.41;;;-0.64;100.00
16451;BME280;12243;42.708;23.310;2023-12-20T05:29:53;95119.19;;;-0.51;100.00
16451;BME280;12243;42.708;23.310;2023-12-20T05:32:24;95123.72;;;-0.57;100.00
16451;BME280;12243;42.708;23.310;2023-12-20T05:34:51;95123.78;;;-0.59;100.00
16451;BME280;12243;42.708;23.310;2023-12-20T05:37:18;95111.94;;;-0.61;100.00
16451;BME280;12243;42.708;23.310;2023-12-20T05:39:45;95110.22;;;-0.61;100.00
16451;BME280;12243;42.708;23.310;2023-12-20T05:42:12;95124.91;;;-0.66;100.00
16451;BME280;12243;42.708;23.310;2023-12-20T05:44:39;95118.78;;;-0.62;100.00
16451;BME280;12243;42.708;23.310;2023-12-20T05:47:06;95102.66;;;-0.64;100.00
16451;BME280;12243;42.708;23.310;2023-12-20T05:49:34;95114.19;;;-0.54;100.00
16451;BME280;12243;42.708;23.310;2023-12-20T05:52:01;95113.19;;;-0.50;100.00
16451;BME280;12243;42.708;23.310;2023-12-20T05:54:27;95111.53;;;-0.51;100.00
16451;BME280;12243;42.708;23.310;2023-12-20T05:56:55;95101.22;;;-0.49;100.00
16451;BME280;12243;42.708;23.310;2023-12-20T05:59:21;95101.94;;;-0.45;100.00
16451;BME280;12243;42.708;23.310;2023-12-20T06:01:49;95098.25;;;-0.38;100.00
16451;BME280;12243;42.708;23.310;2023-12-20T06:04:16;95091.22;;;-0.33;100.00
16451;BME280;12243;42.708;23.310;2023-12-20T06:06:44;95090.28;;;-0.31;100.00
16451;BME280;12243;42.708;23.310;2023-12-20T06:09:11;95096.47;;;-0.36;100.00
16451;BME280;12243;42.708;23.310;2023-12-20T06:11:38;95091.34;;;-0.36;100.00
16451;BME280;12243;42.708;23.310;2023-12-20T06:14:05;95102.16;;;-0.30;100.00
16451;BME280;12243;42.708;23.310;2023-12-20T06:16:32;95092.78;;;-0.09;100.00
16451;BME280;12243;42.708;23.310;2023-12-20T06:18:59;95098.47;;;-0.22;100.00
16451;BME280;12243;42.708;23.310;2023-12-20T06:21:25;95098.25;;;-0.38;100.00
16451;BME280;12243;42.708;23.310;2023-12-20T06:23:54;95104.97;;;-0.36;100.00
16451;BME280;12243;42.708;23.310;2023-12-20T06:26:21;95098.63;;;-0.47;100.00
16451;BME280;12243;42.708;23.310;2023-12-20T06:28:48;95099.06;;;-0.60;100.00
16451;BME280;12243;42.708;23.310;2023-12-20T06:31:15;95096.81;;;-0.67;100.00
16451;BME280;12243;42.708;23.310;2023-12-20T06:33:43;95099.88;;;-0.58;100.00
16451;BME280;12243;42.708;23.310;2023-12-20T06:36:11;95110.88;;;-0.56;100.00
16451;BME280;12243;42.708;23.310;2023-12-20T06:38:38;95091.97;;;-0.52;100.00
16451;BME280;12243;42.708;23.310;2023-12-20T06:41:07;95091.84;;;-0.49;100.00
16451;BME280;12243;42.708;23.310;2023-12-20T06:43:34;95089.81;;;-0.40;100.00
16451;BME280;12243;42.708;23.310;2023-12-20T06:46:01;95086.94;;;-0.33;100.00
16451;BME280;12243;42.708;23.310;2023-12-20T06:48:27;95080.75;;;-0.27;100.00
16451;BME280;12243;42.708;23.310;2023-12-20T06:50:54;95077.44;;;-0.09;100.00
16451;BME280;12243;42.708;23.310;2023-12-20T06:53:21;95077.00;;;0.02;100.00
16451;BME280;12243;42.708;23.310;2023-12-20T06:55:48;95077.63;;;-0.13;100.00
16451;BME280;12243;42.708;23.310;2023-12-20T06:58:17;95068.09;;;-0.10;100.00
16451;BME280;12243;42.708;23.310;2023-12-20T07:00:44;95074.50;;;0.01;100.00
16451;BME280;12243;42.708;23.310;2023-12-20T07:03:11;95062.91;;;0.12;100.00
16451;BME280;12243;42.708;23.310;2023-12-20T07:05:37;95065.97;;;0.20;100.00
16451;BME280;12243;42.708;23.310;2023-12-20T07:08:05;95069.31;;;0.22;100.00
16451;BME280;12243;42.708;23.310;2023-12-20T07:10:32;95063.47;;;0.39;100.00
16451;BME280;12243;42.708;23.310;2023-12-20T07:12:59;95057.31;;;0.43;100.00
16451;BME280;12243;42.708;23.310;2023-12-20T07:15:28;95064.06;;;0.46;100.00
16451;BME280;12243;42.708;23.310;2023-12-20T07:17:55;95060.69;;;0.64;100.00
16451;BME280;12243;42.708;23.310;2023-12-20T07:20:21;95063.16;;;0.66;100.00
16451;BME280;12243;42.708;23.310;2023-12-20T07:22:48;95055.22;;;0.72;100.00
16451;BME280;12243;42.708;23.310;2023-12-20T07:25:16;95051.19;;;0.85;100.00
16451;BME280;12243;42.708;23.310;2023-12-20T07:27:43;95054.88;;;0.99;100.00
16451;BME280;12243;42.708;23.310;2023-12-20T07:30:11;95048.69;;;1.03;100.00
16451;BME280;12243;42.708;23.310;2023-12-20T07:32:39;95043.34;;;1.07;100.00
16451;BME280;12243;42.708;23.310;2023-12-20T07:35:06;95051.59;;;1.14;100.00
16451;BME280;12243;42.708;23.310;2023-12-20T07:37:33;95042.13;;;1.16;100.00
16451;BME280;12243;42.708;23.310;2023-12-20T07:40:00;95046.06;;;1.23;100.00
16451;BME280;12243;42.708;23.310;2023-12-20T07:42:28;95045.91;;;1.26;100.00
16451;BME280;12243;42.708;23.310;2023-12-20T07:44:55;95041.66;;;1.25;100.00
16451;BME280;12243;42.708;23.310;2023-12-20T07:47:22;95043.34;;;1.26;100.00
16451;BME280;12243;42.708;23.310;2023-12-20T07:49:52;95046.66;;;1.28;100.00
16451;BME280;12243;42.708;23.310;2023-12-20T07:52:19;95039.59;;;1.33;100.00
16451;BME280;12243;42.708;23.310;2023-12-20T07:54:47;95040.78;;;1.26;100.00
16451;BME280;12243;42.708;23.310;2023-12-20T07:57:14;95039.38;;;1.38;100.00
16451;BME280;12243;42.708;23.310;2023-12-20T07:59:41;95035.75;;;1.42;100.00
16451;BME280;12243;42.708;23.310;2023-12-20T08:02:09;95040.16;;;1.21;100.00
16451;BME280;12243;42.708;23.310;2023-12-20T08:04:36;95037.34;;;1.08;100.00
16451;BME280;12243;42.708;23.310;2023-12-20T08:07:04;95040.53;;;0.94;100.00
16451;BME280;12243;42.708;23.310;2023-12-20T08:09:31;95027.28;;;1.04;100.00
16451;BME280;12243;42.708;23.310;2023-12-20T08:11:59;95034.09;;;1.05;100.00
16451;BME280;12243;42.708;23.310;2023-12-20T08:14:26;95032.53;;;1.01;100.00
16451;BME280;12243;42.708;23.310;2023-12-20T08:16:53;95028.19;;;1.03;100.00
16451;BME280;12243;42.708;23.310;2023-12-20T08:19:19;95021.28;;;1.05;100.00
16451;BME280;12243;42.708;23.310;2023-12-20T08:21:46;95013.91;;;1.16;100.00
16451;BME280;12243;42.708;23.310;2023-12-20T08:24:14;95019.34;;;1.27;100.00
16451;BME280;12243;42.708;23.310;2023-12-20T08:26:41;95018.94;;;1.36;100.00
16451;BME280;12243;42.708;23.310;2023-12-20T08:29:08;95010.91;;;1.42;100.00
16451;BME280;12243;42.708;23.310;2023-12-20T08:31:35;95018.88;;;1.55;100.00
16451;BME280;12243;42.708;23.310;2023-12-20T08:34:02;95009.91;;;1.64;100.00
16451;BME280;12243;42.708;23.310;2023-12-20T08:36:29;94998.50;;;1.70;100.00
16451;BME280;12243;42.708;23.310;2023-12-20T08:38:55;95005.47;;;1.85;100.00
16451;BME280;12243;42.708;23.310;2023-12-20T08:41:26;94999.84;;;1.94;100.00
16451;BME280;12243;42.708;23.310;2023-12-20T08:43:53;95001.59;;;1.76;100.00
16451;BME280;12243;42.708;23.310;2023-12-20T08:46:20;94988.16;;;1.71;100.00
16451;BME280;12243;42.708;23.310;2023-12-20T08:48:46;94995.69;;;1.74;100.00
16451;BME280;12243;42.708;23.310;2023-12-20T08:51:13;94982.56;;;1.80;100.00
16451;BME280;12243;42.708;23.310;2023-12-20T08:53:40;94976.53;;;1.81;100.00
16451;BME280;12243;42.708;23.310;2023-12-20T08:56:07;94984.91;;;1.85;100.00
16451;BME280;12243;42.708;23.310;2023-12-20T08:58:35;94977.28;;;1.83;100.00
16451;BME280;12243;42.708;23.310;2023-12-20T09:01:02;94970.19;;;1.88;100.00
16451;BME280;12243;42.708;23.310;2023-12-20T09:03:29;94965.88;;;1.89;100.00
16451;BME280;12243;42.708;23.310;2023-12-20T09:05:56;94951.59;;;1.83;100.00
16451;BME280;12243;42.708;23.310;2023-12-20T09:08:23;94950.31;;;1.92;100.00
16451;BME280;12243;42.708;23.310;2023-12-20T09:10:50;94936.03;;;1.86;100.00
16451;BME280;12243;42.708;23.310;2023-12-20T09:13:17;94937.28;;;1.95;100.00
16451;BME280;12243;42.708;23.310;2023-12-20T09:15:45;94930.34;;;1.97;100.00
16451;BME280;12243;42.708;23.310;2023-12-20T09:18:12;94914.38;;;2.08;100.00
16451;BME280;12243;42.708;23.310;2023-12-20T09:20:39;94918.38;;;2.13;100.00
16451;BME280;12243;42.708;23.310;2023-12-20T09:23:06;94916.09;;;2.25;100.00
16451;BME280;12243;42.708;23.310;2023-12-20T09:25:32;94891.06;;;2.28;100.00
16451;BME280;12243;42.708;23.310;2023-12-20T09:27:59;94892.69;;;2.29;100.00
16451;BME280;12243;42.708;23.310;2023-12-20T09:30:26;94894.03;;;2.36;100.00
16451;BME280;12243;42.708;23.310;2023-12-20T09:32:54;94888.31;;;2.47;100.00
16451;BME280;12243;42.708;23.310;2023-12-20T09:35:21;94886.25;;;2.54;100.00
16451;BME280;12243;42.708;23.310;2023-12-20T09:37:49;94880.59;;;2.47;100.00
16451;BME280;12243;42.708;23.310;2023-12-20T09:40:18;94870.50;;;2.60;100.00
16451;BME280;12243;42.708;23.310;2023-12-20T09:42:48;94858.63;;;2.73;100.00
16451;BME280;12243;42.708;23.310;2023-12-20T09:45:19;94861.19;;;2.73;100.00
16451;BME280;12243;42.708;23.310;2023-12-20T09:47:46;94855.84;;;2.92;100.00
16451;BME280;12243;42.708;23.310;2023-12-20T09:50:16;94853.38;;;2.91;100.00
16451;BME280;12243;42.708;23.310;2023-12-20T09:52:46;94846.22;;;2.96;100.00
16451;BME280;12243;42.708;23.310;2023-12-20T09:55:17;94847.53;;;3.03;100.00
16451;BME280;12243;42.708;23.310;2023-12-20T09:57:45;94848.50;;;3.16;100.00
16451;BME280;12243;42.708;23.310;2023-12-20T10:00:13;94846.31;;;3.24;100.00
16451;BME280;12243;42.708;23.310;2023-12-20T10:02:45;94833.28;;;3.42;99.20
16451;BME280;12243;42.708;23.310;2023-12-20T10:05:26;94835.63;;;3.16;97.72
16451;BME280;12243;42.708;23.310;2023-12-20T10:07:53;94834.84;;;3.00;98.35
16451;BME280;12243;42.708;23.310;2023-12-20T10:10:20;94830.78;;;2.96;99.48
16451;BME280;12243;42.708;23.310;2023-12-20T10:13:01;94820.97;;;3.02;100.00
16451;BME280;12243;42.708;23.310;2023-12-20T10:15:28;94820.00;;;3.19;100.00
16451;BME280;12243;42.708;23.310;2023-12-20T10:17:56;94817.75;;;3.29;100.00
16451;BME280;12243;42.708;23.310;2023-12-20T10:20:24;94810.03;;;3.43;100.00
16451;BME280;12243;42.708;23.310;2023-12-20T10:22:52;94800.03;;;3.53;98.71
16451;BME280;12243;42.708;23.310;2023-12-20T10:25:20;94793.41;;;3.49;98.50
16451;BME280;12243;42.708;23.310;2023-12-20T10:27:47;94792.03;;;3.57;97.83
16451;BME280;12243;42.708;23.310;2023-12-20T10:30:14;94776.84;;;3.67;98.25
16451;BME280;12243;42.708;23.310;2023-12-20T10:32:41;94780.44;;;3.79;98.06
16451;BME280;12243;42.708;23.310;2023-12-20T10:35:08;94781.63;;;4.02;98.41
16451;BME280;12243;42.708;23.310;2023-12-20T10:37:37;94773.66;;;4.19;97.25
16451;BME280;12243;42.708;23.310;2023-12-20T10:40:05;94764.25;;;4.33;96.47
16451;BME280;12243;42.708;23.310;2023-12-20T10:42:32;94754.13;;;4.29;95.25
16451;BME280;12243;42.708;23.310;2023-12-20T10:45:01;94751.44;;;4.31;96.04
16451;BME280;12243;42.708;23.310;2023-12-20T10:47:30;94751.34;;;4.33;94.12
16451;BME280;12243;42.708;23.310;2023-12-20T10:49:59;94747.69;;;4.22;95.53
16451;BME280;12243;42.708;23.310;2023-12-20T10:52:27;94742.88;;;4.30;95.05
16451;BME280;12243;42.708;23.310;2023-12-20T10:54:57;94734.03;;;4.35;94.26
16451;BME280;12243;42.708;23.310;2023-12-20T10:57:25;94742.75;;;4.19;94.47
16451;BME280;12243;42.708;23.310;2023-12-20T10:59:54;94740.69;;;4.24;95.96
16451;BME280;12243;42.708;23.310;2023-12-20T11:02:22;94738.09;;;4.24;95.95
16451;BME280;12243;42.708;23.310;2023-12-20T11:04:54;94728.16;;;4.33;95.65
16451;BME280;12243;42.708;23.310;2023-12-20T11:07:25;94717.09;;;4.30;95.53
16451;BME280;12243;42.708;23.310;2023-12-20T11:09:59;94712.25;;;4.26;95.65
16451;BME280;12243;42.708;23.310;2023-12-20T11:12:35;94707.81;;;4.28;95.91
16451;BME280;12243;42.708;23.310;2023-12-20T11:15:04;94709.03;;;4.22;96.07
16451;BME280;12243;42.708;23.310;2023-12-20T11:17:32;94704.41;;;4.27;95.40
16451;BME280;12243;42.708;23.310;2023-12-20T11:20:09;94704.97;;;4.18;95.73
16451;BME280;12243;42.708;23.310;2023-12-20T11:22:39;94690.53;;;3.89;96.22
16451;BME280;12243;42.708;23.310;2023-12-20T11:25:20;94685.88;;;3.81;96.19
16451;BME280;12243;42.708;23.310;2023-12-20T11:28:09;94675.88;;;3.62;96.77
16451;BME280;12243;42.708;23.310;2023-12-20T11:30:45;94673.50;;;3.45;98.21
16451;BME280;12243;42.708;23.310;2023-12-20T11:33:13;94668.31;;;3.32;99.46
16451;BME280;12243;42.708;23.310;2023-12-20T11:35:40;94667.84;;;3.25;99.95
16451;BME280;12243;42.708;23.310;2023-12-20T11:38:08;94659.38;;;3.23;100.00
16451;BME280;12243;42.708;23.310;2023-12-20T11:40:37;94648.44;;;3.20;100.00
16451;BME280;12243;42.708;23.310;2023-12-20T11:43:04;94649.44;;;3.17;100.00
16451;BME280;12243;42.708;23.310;2023-12-20T11:45:31;94646.22;;;3.14;100.00
16451;BME280;12243;42.708;23.310;2023-12-20T11:47:57;94640.09;;;3.16;100.00
16451;BME280;12243;42.708;23.310;2023-12-20T11:50:25;94642.03;;;3.13;100.00
16451;BME280;12243;42.708;23.310;2023-12-20T11:52:53;94629.44;;;3.08;100.00
16451;BME280;12243;42.708;23.310;2023-12-20T11:55:21;94623.00;;;3.01;100.00
16451;BME280;12243;42.708;23.310;2023-12-20T11:57:49;94612.53;;;3.04;100.00
16451;BME280;12243;42.708;23.310;2023-12-20T12:00:17;94607.00;;;3.24;100.00
16451;BME280;12243;42.708;23.310;2023-12-20T12:02:55;94603.31;;;3.28;100.00
16451;BME280;12243;42.708;23.310;2023-12-20T12:05:22;94604.03;;;3.30;100.00
16451;BME280;12243;42.708;23.310;2023-12-20T12:07:48;94596.69;;;3.39;100.00
16451;BME280;12243;42.708;23.310;2023-12-20T12:10:15;94598.16;;;3.43;100.00
16451;BME280;12243;42.708;23.310;2023-12-20T12:12:42;94584.34;;;3.44;100.00
16451;BME280;12243;42.708;23.310;2023-12-20T12:15:11;94581.72;;;3.58;100.00
16451;BME280;12243;42.708;23.310;2023-12-20T12:17:38;94582.09;;;3.52;100.00
16451;BME280;12243;42.708;23.310;2023-12-20T12:20:06;94581.28;;;3.78;100.00
16451;BME280;12243;42.708;23.310;2023-12-20T12:22:34;94567.84;;;3.88;100.00
16451;BME280;12243;42.708;23.310;2023-12-20T12:25:09;94569.28;;;3.92;100.00
16451;BME280;12243;42.708;23.310;2023-12-20T12:27:36;94563.91;;;3.82;100.00
16451;BME280;12243;42.708;23.310;2023-12-20T12:30:05;94571.94;;;3.77;100.00
16451;BME280;12243;42.708;23.310;2023-12-20T12:32:35;94562.69;;;3.88;100.00
16451;BME280;12243;42.708;23.310;2023-12-20T12:35:03;94570.22;;;3.91;100.00
16451;BME280;12243;42.708;23.310;2023-12-20T12:37:34;94571.13;;;3.90;100.00
16451;BME280;12243;42.708;23.310;2023-12-20T12:40:00;94565.31;;;3.73;100.00
16451;BME280;12243;42.708;23.310;2023-12-20T12:42:28;94575.81;;;3.70;100.00
16451;BME280;12243;42.708;23.310;2023-12-20T12:44:55;94563.84;;;3.69;100.00
16451;BME280;12243;42.708;23.310;2023-12-20T12:47:22;94559.38;;;3.86;100.00
16451;BME280;12243;42.708;23.310;2023-12-20T12:49:51;94557.97;;;3.94;100.00